sensor_id;sensor_type;location;lat;lon;timestamp;pressure;altitude;pressure_sealevel;temperature;humidity
46379;BME280;32084;42.254;22.744;2023-04-07T00:00:51;94957.38;;;2.68;61.24
46379;BME280;32084;42.254;22.744;2023-04-07T00:03:17;94954.91;;;2.42;60.74
46379;BME280;32084;42.254;22.744;2023-04-07T00:05:43;94965.88;;;2.13;60.19
46379;BME280;32084;42.254;22.744;2023-04-07T00:08:09;94967.28;;;2.06;60.21
46379;BME280;32084;42.254;22.744;2023-04-07T00:10:35;94970.59;;;2.32;60.07
46379;BME280;32084;42.254;22.744;2023-04-07T00:13:02;94967.66;;;2.60;60.28
46379;BME280;32084;42.254;22.744;2023-04-07T00:15:28;94970.22;;;2.84;61.11
46379;BME280;32084;42.254;22.744;2023-04-07T00:17:54;94967.97;;;2.90;61.33
46379;BME280;32084;42.254;22.744;2023-04-07T00:20:21;94967.63;;;2.48;62.60
46379;BME280;32084;42.254;22.744;2023-04-07T00:22:47;94958.28;;;2.44;64.12
46379;BME280;32084;42.254;22.744;2023-04-07T00:25:13;94960.19;;;2.42;63.97
46379;BME280;32084;42.254;22.744;2023-04-07T00:27:39;94966.84;;;2.70;62.80
46379;BME280;32084;42.254;22.744;2023-04-07T00:30:05;94970.44;;;2.81;61.36
46379;BME280;32084;42.254;22.744;2023-04-07T00:32:31;94968.44;;;2.96;60.29
46379;BME280;32084;42.254;22.744;2023-04-07T00:34:57;94964.94;;;2.84;62.97
46379;BME280;32084;42.254;22.744;2023-04-07T00:37:23;94972.25;;;2.80;60.73
46379;BME280;32084;42.254;22.744;2023-04-07T00:39:50;94964.94;;;2.84;62.42
46379;BME280;32084;42.254;22.744;2023-04-07T00:42:17;94969.84;;;2.66;60.56
46379;BME280;32084;42.254;22.744;2023-04-07T00:44:43;94973.47;;;2.76;60.89
46379;BME280;32084;42.254;22.744;2023-04-07T00:47:09;94968.56;;;2.94;59.50
46379;BME280;32084;42.254;22.744;2023-04-07T00:49:35;94973.13;;;3.03;59.61
46379;BME280;32084;42.254;22.744;2023-04-07T00:52:01;94972.66;;;3.09;60.00
46379;BME280;32084;42.254;22.744;2023-04-07T00:54:28;94973.72;;;3.07;61.46
46379;BME280;32084;42.254;22.744;2023-04-07T00:56:55;94981.16;;;2.90;61.56
46379;BME280;32084;42.254;22.744;2023-04-07T00:59:22;94972.66;;;2.87;62.56
46379;BME280;32084;42.254;22.744;2023-04-07T01:01:58;94980.69;;;2.85;62.49
46379;BME280;32084;42.254;22.744;2023-04-07T01:04:31;94977.44;;;2.93;62.39
46379;BME280;32084;42.254;22.744;2023-04-07T01:07:00;94983.66;;;2.69;62.79
46379;BME280;32084;42.254;22.744;2023-04-07T01:10:12;94974.06;;;2.80;61.46
46379;BME280;32084;42.254;22.744;2023-04-07T01:15:04;94978.97;;;2.73;62.15
46379;BME280;32084;42.254;22.744;2023-04-07T01:17:33;94976.56;;;2.70;62.82
46379;BME280;32084;42.254;22.744;2023-04-07T01:20:03;94975.13;;;2.66;62.53
46379;BME280;32084;42.254;22.744;2023-04-07T01:22:35;94975.28;;;2.76;62.73
46379;BME280;32084;42.254;22.744;2023-04-07T01:27:41;94973.69;;;2.73;63.36
46379;BME280;32084;42.254;22.744;2023-04-07T01:30:11;94969.84;;;2.66;64.31
46379;BME280;32084;42.254;22.744;2023-04-07T01:32:38;94966.63;;;2.73;64.47
46379;BME280;32084;42.254;22.744;2023-04-07T01:35:05;94963.72;;;2.77;64.44
46379;BME280;32084;42.254;22.744;2023-04-07T01:37:34;94969.22;;;2.51;64.06
46379;BME280;32084;42.254;22.744;2023-04-07T01:40:02;94966.16;;;2.33;64.14
46379;BME280;32084;42.254;22.744;2023-04-07T01:42:29;94969.22;;;2.51;64.58
46379;BME280;32084;42.254;22.744;2023-04-07T01:44:55;94969.97;;;2.64;63.58
46379;BME280;32084;42.254;22.744;2023-04-07T01:47:22;94966.16;;;2.33;64.20
46379;BME280;32084;42.254;22.744;2023-04-07T01:49:48;94967.16;;;2.43;64.51
46379;BME280;32084;42.254;22.744;2023-04-07T01:52:16;94968.03;;;2.55;64.92
46379;BME280;32084;42.254;22.744;2023-04-07T01:54:42;94967.66;;;2.60;65.22
46379;BME280;32084;42.254;22.744;2023-04-07T01:57:08;94964.88;;;2.50;65.02
46379;BME280;32084;42.254;22.744;2023-04-07T01:59:34;94970.81;;;2.29;64.65
46379;BME280;32084;42.254;22.744;2023-04-07T02:02:00;94969.63;;;2.22;65.29
46379;BME280;32084;42.254;22.744;2023-04-07T02:06:53;94973.50;;;2.41;64.87
46379;BME280;32084;42.254;22.744;2023-04-07T02:09:20;94969.13;;;2.52;63.98
46379;BME280;32084;42.254;22.744;2023-04-07T02:11:47;94960.81;;;2.46;64.81
46379;BME280;32084;42.254;22.744;2023-04-07T02:14:14;94960.69;;;2.47;64.85
46379;BME280;32084;42.254;22.744;2023-04-07T02:16:42;94961.16;;;2.41;64.62
46379;BME280;32084;42.254;22.744;2023-04-07T02:19:09;94960.75;;;2.23;65.27
46379;BME280;32084;42.254;22.744;2023-04-07T02:21:35;94957.91;;;2.02;65.22
46379;BME280;32084;42.254;22.744;2023-04-07T02:24:04;94953.56;;;1.90;65.99
46379;BME280;32084;42.254;22.744;2023-04-07T02:26:34;94954.16;;;1.93;66.30
46379;BME280;32084;42.254;22.744;2023-04-07T02:29:03;94952.03;;;1.99;65.59
46379;BME280;32084;42.254;22.744;2023-04-07T02:31:30;94953.41;;;1.91;65.78
46379;BME280;32084;42.254;22.744;2023-04-07T02:33:56;94949.84;;;1.68;66.55
46379;BME280;32084;42.254;22.744;2023-04-07T02:36:22;94949.66;;;1.34;65.92
46379;BME280;32084;42.254;22.744;2023-04-07T02:38:48;94955.06;;;1.20;66.35
46379;BME280;32084;42.254;22.744;2023-04-07T02:41:14;94951.22;;;1.37;66.08
46379;BME280;32084;42.254;22.744;2023-04-07T02:43:40;94954.78;;;1.49;65.88
46379;BME280;32084;42.254;22.744;2023-04-07T02:46:06;94951.59;;;1.56;66.07
46379;BME280;32084;42.254;22.744;2023-04-07T02:48:32;94950.69;;;1.45;65.46
46379;BME280;32084;42.254;22.744;2023-04-07T02:50:58;94955.44;;;1.40;66.07
46379;BME280;32084;42.254;22.744;2023-04-07T02:53:24;94952.53;;;1.31;66.04
46379;BME280;32084;42.254;22.744;2023-04-07T02:55:50;94958.47;;;1.09;65.58
46379;BME280;32084;42.254;22.744;2023-04-07T02:58:16;94955.81;;;1.22;64.67
46379;BME280;32084;42.254;22.744;2023-04-07T03:00:42;94954.53;;;1.28;64.70
46379;BME280;32084;42.254;22.744;2023-04-07T03:03:08;94955.88;;;1.33;65.30
46379;BME280;32084;42.254;22.744;2023-04-07T03:05:34;94956.63;;;1.23;64.71
46379;BME280;32084;42.254;22.744;2023-04-07T03:08:00;94956.31;;;1.27;64.91
46379;BME280;32084;42.254;22.744;2023-04-07T03:10:26;94958.78;;;1.42;65.07
46379;BME280;32084;42.254;22.744;2023-04-07T03:12:52;94958.44;;;1.22;64.49
46379;BME280;32084;42.254;22.744;2023-04-07T03:15:18;94963.72;;;1.09;64.12
46379;BME280;32084;42.254;22.744;2023-04-07T03:17:44;94964.34;;;1.13;64.64
46379;BME280;32084;42.254;22.744;2023-04-07T03:20:10;94969.78;;;1.35;65.00
46379;BME280;32084;42.254;22.744;2023-04-07T03:22:36;94965.75;;;1.43;65.50
46379;BME280;32084;42.254;22.744;2023-04-07T03:25:03;94967.78;;;1.39;64.73
46379;BME280;32084;42.254;22.744;2023-04-07T03:27:29;94970.09;;;1.31;66.26
46379;BME280;32084;42.254;22.744;2023-04-07T03:29:55;94971.97;;;1.05;66.97
46379;BME280;32084;42.254;22.744;2023-04-07T03:32:21;94975.34;;;0.81;67.89
46379;BME280;32084;42.254;22.744;2023-04-07T03:34:47;94975.66;;;0.89;67.72
46379;BME280;32084;42.254;22.744;2023-04-07T03:37:13;94967.97;;;0.99;67.77
46379;BME280;32084;42.254;22.744;2023-04-07T03:39:39;94971.97;;;1.05;67.45
46379;BME280;32084;42.254;22.744;2023-04-07T03:42:05;94976.16;;;1.07;67.54
46379;BME280;32084;42.254;22.744;2023-04-07T03:44:31;94979.13;;;1.03;67.02
46379;BME280;32084;42.254;22.744;2023-04-07T03:46:57;94975.44;;;1.05;67.23
46379;BME280;32084;42.254;22.744;2023-04-07T03:49:23;94985.66;;;0.97;67.92
46379;BME280;32084;42.254;22.744;2023-04-07T03:51:49;94994.09;;;0.89;68.45
46379;BME280;32084;42.254;22.744;2023-04-07T03:54:15;94984.94;;;0.82;68.47
46379;BME280;32084;42.254;22.744;2023-04-07T03:56:41;94987.56;;;0.82;69.41
46379;BME280;32084;42.254;22.744;2023-04-07T03:59:07;94991.66;;;0.73;68.40
46379;BME280;32084;42.254;22.744;2023-04-07T04:01:34;94991.03;;;0.44;68.36
46379;BME280;32084;42.254;22.744;2023-04-07T04:04:01;95000.06;;;0.53;68.62
46379;BME280;32084;42.254;22.744;2023-04-07T04:06:27;94997.94;;;0.45;69.12
46379;BME280;32084;42.254;22.744;2023-04-07T04:08:53;94993.13;;;0.52;69.24
46379;BME280;32084;42.254;22.744;2023-04-07T04:11:19;94993.03;;;0.79;68.20
46379;BME280;32084;42.254;22.744;2023-04-07T04:13:46;95000.19;;;0.90;68.73
46379;BME280;32084;42.254;22.744;2023-04-07T04:16:12;94999.34;;;0.89;68.61
46379;BME280;32084;42.254;22.744;2023-04-07T04:18:38;94994.63;;;0.69;69.23
46379;BME280;32084;42.254;22.744;2023-04-07T04:21:05;94995.44;;;0.56;69.29
46379;BME280;32084;42.254;22.744;2023-04-07T04:23:31;95009.22;;;0.34;68.95
46379;BME280;32084;42.254;22.744;2023-04-07T04:25:57;95006.22;;;0.26;69.00
46379;BME280;32084;42.254;22.744;2023-04-07T04:28:24;95013.47;;;0.23;68.97
46379;BME280;32084;42.254;22.744;2023-04-07T04:30:51;95015.56;;;0.57;68.36
46379;BME280;32084;42.254;22.744;2023-04-07T04:33:17;95010.28;;;0.96;67.76
46379;BME280;32084;42.254;22.744;2023-04-07T04:35:44;95015.88;;;2.15;63.66
46379;BME280;32084;42.254;22.744;2023-04-07T04:38:10;95015.94;;;2.84;61.33
46379;BME280;32084;42.254;22.744;2023-04-07T04:40:36;95008.69;;;3.33;59.77
46379;BME280;32084;42.254;22.744;2023-04-07T04:43:02;95009.16;;;3.38;58.73
46379;BME280;32084;42.254;22.744;2023-04-07T04:45:32;95024.19;;;3.26;57.85
46379;BME280;32084;42.254;22.744;2023-04-07T04:47:58;95009.81;;;3.85;57.05
46379;BME280;32084;42.254;22.744;2023-04-07T04:50:24;95017.19;;;4.46;55.97
46379;BME280;32084;42.254;22.744;2023-04-07T04:52:50;95012.97;;;4.76;55.48
46379;BME280;32084;42.254;22.744;2023-04-07T04:55:17;95024.69;;;4.62;55.47
46379;BME280;32084;42.254;22.744;2023-04-07T04:57:43;95017.41;;;4.22;56.13
46379;BME280;32084;42.254;22.744;2023-04-07T05:00:10;95016.41;;;4.02;57.51
46379;BME280;32084;42.254;22.744;2023-04-07T05:02:36;95015.94;;;3.86;58.23
46379;BME280;32084;42.254;22.744;2023-04-07T05:05:02;95021.88;;;3.67;58.37
46379;BME280;32084;42.254;22.744;2023-04-07T05:07:28;95023.44;;;3.36;58.71
46379;BME280;32084;42.254;22.744;2023-04-07T05:09:54;95014.94;;;3.32;58.81
46379;BME280;32084;42.254;22.744;2023-04-07T05:12:20;95027.88;;;3.35;59.12
46379;BME280;32084;42.254;22.744;2023-04-07T05:14:47;95025.47;;;3.43;59.52
46379;BME280;32084;42.254;22.744;2023-04-07T05:17:13;95028.47;;;3.72;59.33
46379;BME280;32084;42.254;22.744;2023-04-07T05:19:39;95032.03;;;3.94;59.60
46379;BME280;32084;42.254;22.744;2023-04-07T05:22:05;95025.06;;;4.04;60.32
46379;BME280;32084;42.254;22.744;2023-04-07T05:24:31;95032.97;;;4.16;59.61
46379;BME280;32084;42.254;22.744;2023-04-07T05:26:57;95037.47;;;4.25;60.25
46379;BME280;32084;42.254;22.744;2023-04-07T05:29:23;95029.84;;;4.43;60.90
46379;BME280;32084;42.254;22.744;2023-04-07T05:31:49;95038.00;;;4.51;60.41
46379;BME280;32084;42.254;22.744;2023-04-07T05:34:15;95043.63;;;4.58;61.45
46379;BME280;32084;42.254;22.744;2023-04-07T05:36:42;95034.22;;;4.65;61.73
46379;BME280;32084;42.254;22.744;2023-04-07T05:39:08;95034.47;;;4.83;61.40
46379;BME280;32084;42.254;22.744;2023-04-07T05:41:34;95030.66;;;4.97;60.92
46379;BME280;32084;42.254;22.744;2023-04-07T05:44:00;95033.50;;;5.05;60.48
46379;BME280;32084;42.254;22.744;2023-04-07T05:46:26;95034.44;;;5.25;59.20
46379;BME280;32084;42.254;22.744;2023-04-07T05:48:52;95035.38;;;5.45;58.73
46379;BME280;32084;42.254;22.744;2023-04-07T05:51:18;95029.19;;;5.65;58.44
46379;BME280;32084;42.254;22.744;2023-04-07T05:53:44;95032.84;;;5.74;58.13
46379;BME280;32084;42.254;22.744;2023-04-07T05:56:10;95027.16;;;5.79;59.01
46379;BME280;32084;42.254;22.744;2023-04-07T05:58:36;95025.41;;;6.09;56.91
46379;BME280;32084;42.254;22.744;2023-04-07T06:01:02;95030.22;;;6.44;56.33
46379;BME280;32084;42.254;22.744;2023-04-07T06:03:28;95041.69;;;6.54;55.84
46379;BME280;32084;42.254;22.744;2023-04-07T06:05:54;95033.19;;;6.60;54.88
46379;BME280;32084;42.254;22.744;2023-04-07T06:08:20;95038.06;;;6.84;54.52
46379;BME280;32084;42.254;22.744;2023-04-07T06:10:46;95039.41;;;7.28;53.20
46379;BME280;32084;42.254;22.744;2023-04-07T06:13:12;95044.84;;;7.73;52.34
46379;BME280;32084;42.254;22.744;2023-04-07T06:15:39;95043.28;;;7.43;51.03
46379;BME280;32084;42.254;22.744;2023-04-07T06:18:05;95047.66;;;7.72;51.21
46379;BME280;32084;42.254;22.744;2023-04-07T06:20:31;95044.00;;;8.00;50.14
46379;BME280;32084;42.254;22.744;2023-04-07T06:22:57;95035.22;;;7.72;50.23
46379;BME280;32084;42.254;22.744;2023-04-07T06:25:23;95041.78;;;7.78;50.75
46379;BME280;32084;42.254;22.744;2023-04-07T06:27:49;95056.16;;;8.13;48.34
46379;BME280;32084;42.254;22.744;2023-04-07T06:30:15;95045.78;;;8.37;49.77
46379;BME280;32084;42.254;22.744;2023-04-07T06:32:41;95052.16;;;8.72;46.97
46379;BME280;32084;42.254;22.744;2023-04-07T06:35:07;95049.88;;;8.77;47.48
46379;BME280;32084;42.254;22.744;2023-04-07T06:37:34;95056.06;;;8.96;47.66
46379;BME280;32084;42.254;22.744;2023-04-07T06:40:00;95054.44;;;9.03;47.46
46379;BME280;32084;42.254;22.744;2023-04-07T06:42:26;95052.94;;;9.27;46.55
46379;BME280;32084;42.254;22.744;2023-04-07T06:44:52;95056.47;;;9.80;45.36
46379;BME280;32084;42.254;22.744;2023-04-07T06:47:18;95063.41;;;9.99;43.79
46379;BME280;32084;42.254;22.744;2023-04-07T06:49:44;95054.75;;;10.05;44.83
46379;BME280;32084;42.254;22.744;2023-04-07T06:52:10;95068.59;;;10.34;42.37
46379;BME280;32084;42.254;22.744;2023-04-07T06:54:36;95069.78;;;10.06;43.55
46379;BME280;32084;42.254;22.744;2023-04-07T06:57:02;95077.44;;;10.01;40.72
46379;BME280;32084;42.254;22.744;2023-04-07T06:59:28;95068.09;;;10.39;41.09
46379;BME280;32084;42.254;22.744;2023-04-07T07:01:54;95083.13;;;10.99;38.76
46379;BME280;32084;42.254;22.744;2023-04-07T07:04:20;95077.78;;;10.99;38.53
46379;BME280;32084;42.254;22.744;2023-04-07T07:06:46;95078.28;;;11.19;38.01
46379;BME280;32084;42.254;22.744;2023-04-07T07:09:12;95082.09;;;11.00;37.68
46379;BME280;32084;42.254;22.744;2023-04-07T07:11:38;95075.56;;;10.86;38.07
46379;BME280;32084;42.254;22.744;2023-04-07T07:14:05;95073.91;;;10.85;38.27
46379;BME280;32084;42.254;22.744;2023-04-07T07:16:31;95065.91;;;11.26;39.61
46379;BME280;32084;42.254;22.744;2023-04-07T07:18:57;95063.97;;;12.01;39.54
46379;BME280;32084;42.254;22.744;2023-04-07T07:21:23;95072.06;;;11.84;36.98
46379;BME280;32084;42.254;22.744;2023-04-07T07:23:49;95072.06;;;11.93;37.37
46379;BME280;32084;42.254;22.744;2023-04-07T07:26:15;95078.25;;;12.01;36.08
46379;BME280;32084;42.254;22.744;2023-04-07T07:28:41;95079.69;;;12.12;34.65
46379;BME280;32084;42.254;22.744;2023-04-07T07:31:10;95081.75;;;12.02;36.55
46379;BME280;32084;42.254;22.744;2023-04-07T07:33:38;95084.97;;;11.97;35.56
46379;BME280;32084;42.254;22.744;2023-04-07T07:36:06;95075.25;;;11.71;37.60
46379;BME280;32084;42.254;22.744;2023-04-07T07:38:32;95076.59;;;11.51;36.82
46379;BME280;32084;42.254;22.744;2023-04-07T07:40:58;95079.44;;;11.49;35.32
46379;BME280;32084;42.254;22.744;2023-04-07T07:43:24;95076.09;;;11.47;35.90
46379;BME280;32084;42.254;22.744;2023-04-07T07:45:50;95078.56;;;12.46;36.43
46379;BME280;32084;42.254;22.744;2023-04-07T07:48:16;95078.03;;;12.90;36.22
46379;BME280;32084;42.254;22.744;2023-04-07T07:50:43;95083.44;;;13.05;35.54
46379;BME280;32084;42.254;22.744;2023-04-07T07:53:09;95081.25;;;13.32;34.42
46379;BME280;32084;42.254;22.744;2023-04-07T07:55:35;95079.94;;;13.04;34.82
46379;BME280;32084;42.254;22.744;2023-04-07T07:58:01;95078.28;;;13.50;34.21
46379;BME280;32084;42.254;22.744;2023-04-07T08:00:27;95080.56;;;13.38;34.55
46379;BME280;32084;42.254;22.744;2023-04-07T08:02:53;95084.44;;;13.35;33.73
46379;BME280;32084;42.254;22.744;2023-04-07T08:05:20;95086.97;;;13.90;33.69
46379;BME280;32084;42.254;22.744;2023-04-07T08:07:46;95080.97;;;13.88;33.91
46379;BME280;32084;42.254;22.744;2023-04-07T08:10:13;95078.03;;;12.90;35.06
46379;BME280;32084;42.254;22.744;2023-04-07T08:12:39;95085.81;;;11.57;34.20
46379;BME280;32084;42.254;22.744;2023-04-07T08:15:05;95074.06;;;11.82;36.67
46379;BME280;32084;42.254;22.744;2023-04-07T08:17:35;95072.91;;;12.41;35.57
46379;BME280;32084;42.254;22.744;2023-04-07T08:20:01;95076.94;;;12.99;35.55
46379;BME280;32084;42.254;22.744;2023-04-07T08:22:28;95075.22;;;12.44;35.47
46379;BME280;32084;42.254;22.744;2023-04-07T08:24:54;95080.19;;;12.16;34.06
46379;BME280;32084;42.254;22.744;2023-04-07T08:27:20;95080.88;;;12.09;35.32
46379;BME280;32084;42.254;22.744;2023-04-07T08:29:59;95080.44;;;11.89;36.61
46379;BME280;32084;42.254;22.744;2023-04-07T08:32:42;95071.97;;;12.17;36.17
46379;BME280;32084;42.254;22.744;2023-04-07T08:35:08;95072.66;;;12.59;35.11
46379;BME280;32084;42.254;22.744;2023-04-07T08:37:34;95079.06;;;11.85;35.26
46379;BME280;32084;42.254;22.744;2023-04-07T08:40:01;95062.91;;;12.66;36.15
46379;BME280;32084;42.254;22.744;2023-04-07T08:42:28;95063.31;;;13.09;33.80
46379;BME280;32084;42.254;22.744;2023-04-07T08:44:56;95065.25;;;13.61;32.09
46379;BME280;32084;42.254;22.744;2023-04-07T08:47:24;95068.25;;;12.66;33.56
46379;BME280;32084;42.254;22.744;2023-04-07T08:49:51;95062.75;;;13.14;35.15
46379;BME280;32084;42.254;22.744;2023-04-07T08:52:21;95054.19;;;14.09;33.17
46379;BME280;32084;42.254;22.744;2023-04-07T08:54:48;95078.53;;;15.18;31.15
46379;BME280;32084;42.254;22.744;2023-04-07T08:57:14;95075.97;;;15.75;31.92
46379;BME280;32084;42.254;22.744;2023-04-07T08:59:41;95082.31;;;15.24;29.75
46379;BME280;32084;42.254;22.744;2023-04-07T09:02:10;95076.34;;;15.50;31.63
46379;BME280;32084;42.254;22.744;2023-04-07T09:04:36;95066.53;;;14.99;31.40
46379;BME280;32084;42.254;22.744;2023-04-07T09:07:02;95076.69;;;13.93;30.56
46379;BME280;32084;42.254;22.744;2023-04-07T09:09:28;95063.34;;;13.01;33.28
46379;BME280;32084;42.254;22.744;2023-04-07T09:11:54;95060.88;;;12.68;32.99
46379;BME280;32084;42.254;22.744;2023-04-07T09:14:20;95053.38;;;12.86;36.24
46379;BME280;32084;42.254;22.744;2023-04-07T09:16:46;95056.34;;;12.92;35.49
46379;BME280;32084;42.254;22.744;2023-04-07T09:19:12;95056.88;;;13.79;35.13
46379;BME280;32084;42.254;22.744;2023-04-07T09:22:11;95058.44;;;14.48;33.25
46379;BME280;32084;42.254;22.744;2023-04-07T09:24:31;95064.09;;;14.38;33.38
46379;BME280;32084;42.254;22.744;2023-04-07T09:27:10;95056.13;;;14.00;33.80
46379;BME280;32084;42.254;22.744;2023-04-07T09:29:36;95060.84;;;13.83;32.73
46379;BME280;32084;42.254;22.744;2023-04-07T09:32:02;95063.66;;;13.06;32.84
46379;BME280;32084;42.254;22.744;2023-04-07T09:34:30;95056.00;;;12.72;32.76
46379;BME280;32084;42.254;22.744;2023-04-07T09:36:57;95052.59;;;13.01;33.69
46379;BME280;32084;42.254;22.744;2023-04-07T09:39:23;95059.00;;;13.00;34.71
46379;BME280;32084;42.254;22.744;2023-04-07T09:41:49;95055.41;;;12.84;33.74
46379;BME280;32084;42.254;22.744;2023-04-07T09:44:20;95041.78;;;12.86;34.92
46379;BME280;32084;42.254;22.744;2023-04-07T09:46:53;95059.69;;;12.39;32.53
46379;BME280;32084;42.254;22.744;2023-04-07T09:49:20;95053.59;;;12.14;32.81
46379;BME280;32084;42.254;22.744;2023-04-07T09:51:53;95043.03;;;12.52;35.55
46379;BME280;32084;42.254;22.744;2023-04-07T09:57:50;95047.50;;;14.35;33.57
46379;BME280;32084;42.254;22.744;2023-04-07T10:00:17;95054.91;;;13.88;34.46
46379;BME280;32084;42.254;22.744;2023-04-07T10:02:43;95058.44;;;13.36;33.18
46379;BME280;32084;42.254;22.744;2023-04-07T10:05:10;95064.59;;;12.90;33.55
46379;BME280;32084;42.254;22.744;2023-04-07T10:07:36;95052.66;;;12.93;35.84
46379;BME280;32084;42.254;22.744;2023-04-07T10:10:03;95055.09;;;13.34;34.25
46379;BME280;32084;42.254;22.744;2023-04-07T10:12:30;95049.00;;;13.93;34.36
46379;BME280;32084;42.254;22.744;2023-04-07T10:14:57;95053.06;;;14.33;32.69
46379;BME280;32084;42.254;22.744;2023-04-07T10:17:23;95062.19;;;14.17;32.27
46379;BME280;32084;42.254;22.744;2023-04-07T10:19:49;95052.03;;;13.37;33.51
46379;BME280;32084;42.254;22.744;2023-04-07T10:22:16;95055.41;;;13.54;33.60
46379;BME280;32084;42.254;22.744;2023-04-07T10:27:34;95063.81;;;13.36;31.72
46379;BME280;32084;42.254;22.744;2023-04-07T10:30:02;95064.69;;;13.28;33.74
46379;BME280;32084;42.254;22.744;2023-04-07T10:32:30;95065.25;;;13.61;32.51
46379;BME280;32084;42.254;22.744;2023-04-07T10:34:56;95064.19;;;13.47;32.06
46379;BME280;32084;42.254;22.744;2023-04-07T10:37:23;95045.38;;;14.00;34.81
46379;BME280;32084;42.254;22.744;2023-04-07T10:39:50;95057.44;;;14.34;33.75
46379;BME280;32084;42.254;22.744;2023-04-07T10:45:01;95057.66;;;13.65;32.49
46379;BME280;32084;42.254;22.744;2023-04-07T10:47:28;95047.78;;;13.42;33.83
46379;BME280;32084;42.254;22.744;2023-04-07T10:52:38;95038.66;;;13.52;34.20
46379;BME280;32084;42.254;22.744;2023-04-07T11:00:34;95042.53;;;12.01;33.74
46379;BME280;32084;42.254;22.744;2023-04-07T11:03:08;95043.41;;;12.01;33.34
46379;BME280;32084;42.254;22.744;2023-04-07T11:05:34;95043.03;;;12.04;34.53
46379;BME280;32084;42.254;22.744;2023-04-07T11:08:03;95046.81;;;12.26;34.64
46379;BME280;32084;42.254;22.744;2023-04-07T11:10:31;95042.28;;;12.27;34.05
46379;BME280;32084;42.254;22.744;2023-04-07T11:12:58;95047.69;;;12.58;34.50
46379;BME280;32084;42.254;22.744;2023-04-07T11:15:24;95043.28;;;12.65;34.76
46379;BME280;32084;42.254;22.744;2023-04-07T11:20:49;95036.97;;;13.51;35.44
46379;BME280;32084;42.254;22.744;2023-04-07T11:23:16;95039.09;;;13.40;34.54
46379;BME280;32084;42.254;22.744;2023-04-07T11:25:43;95033.44;;;13.50;34.96
46379;BME280;32084;42.254;22.744;2023-04-07T11:28:10;95039.91;;;13.18;33.79
46379;BME280;32084;42.254;22.744;2023-04-07T11:30:37;95035.09;;;12.90;34.50
46379;BME280;32084;42.254;22.744;2023-04-07T11:33:04;95035.44;;;12.87;34.86
46379;BME280;32084;42.254;22.744;2023-04-07T11:35:30;95037.06;;;12.96;34.78
46379;BME280;32084;42.254;22.744;2023-04-07T11:37:57;95042.41;;;12.96;34.29
46379;BME280;32084;42.254;22.744;2023-04-07T11:40:34;95030.97;;;12.79;32.62
46379;BME280;32084;42.254;22.744;2023-04-07T11:43:02;95029.28;;;12.78;34.36
46379;BME280;32084;42.254;22.744;2023-04-07T11:45:28;95021.44;;;12.77;34.99
46379;BME280;32084;42.254;22.744;2023-04-07T11:47:54;95023.75;;;13.03;34.21
46379;BME280;32084;42.254;22.744;2023-04-07T11:50:39;95018.09;;;12.98;34.67
46379;BME280;32084;42.254;22.744;2023-04-07T11:53:05;95012.09;;;13.11;35.71
46379;BME280;32084;42.254;22.744;2023-04-07T11:55:32;95014.38;;;12.99;35.67
46379;BME280;32084;42.254;22.744;2023-04-07T11:58:05;95006.97;;;12.78;34.08
46379;BME280;32084;42.254;22.744;2023-04-07T12:00:31;95013.31;;;12.85;35.07
46379;BME280;32084;42.254;22.744;2023-04-07T12:03:07;95003.66;;;12.99;35.33
46379;BME280;32084;42.254;22.744;2023-04-07T12:05:45;95006.03;;;12.94;35.60
46379;BME280;32084;42.254;22.744;2023-04-07T12:08:12;95010.28;;;13.11;34.65
46379;BME280;32084;42.254;22.744;2023-04-07T12:10:38;95010.78;;;13.06;34.84
46379;BME280;32084;42.254;22.744;2023-04-07T12:13:06;95008.16;;;13.21;35.57
46379;BME280;32084;42.254;22.744;2023-04-07T12:15:33;95014.13;;;13.32;34.79
46379;BME280;32084;42.254;22.744;2023-04-07T12:17:59;95010.38;;;13.41;32.74
46379;BME280;32084;42.254;22.744;2023-04-07T12:20:26;95015.38;;;13.21;33.13
46379;BME280;32084;42.254;22.744;2023-04-07T12:22:52;95009.88;;;13.37;33.81
46379;BME280;32084;42.254;22.744;2023-04-07T12:25:18;95005.38;;;13.38;32.81
46379;BME280;32084;42.254;22.744;2023-04-07T12:27:44;95009.38;;;13.19;35.19
46379;BME280;32084;42.254;22.744;2023-04-07T12:30:11;95005.66;;;13.20;35.96
46379;BME280;32084;42.254;22.744;2023-04-07T12:32:38;95003.47;;;13.00;33.87
46379;BME280;32084;42.254;22.744;2023-04-07T12:35:04;95008.44;;;12.65;33.05
46379;BME280;32084;42.254;22.744;2023-04-07T12:37:30;95002.44;;;12.55;34.30
46379;BME280;32084;42.254;22.744;2023-04-07T12:39:57;95005.59;;;12.59;33.79
46379;BME280;32084;42.254;22.744;2023-04-07T12:42:24;95001.72;;;12.61;34.26
46379;BME280;32084;42.254;22.744;2023-04-07T12:44:51;94996.66;;;12.66;35.02
46379;BME280;32084;42.254;22.744;2023-04-07T12:47:17;95002.09;;;12.58;34.18
46379;BME280;32084;42.254;22.744;2023-04-07T12:49:43;94998.88;;;12.63;35.01
46379;BME280;32084;42.254;22.744;2023-04-07T12:52:10;94997.31;;;12.68;34.44
46379;BME280;32084;42.254;22.744;2023-04-07T12:54:36;94999.69;;;12.63;34.29
46379;BME280;32084;42.254;22.744;2023-04-07T12:57:03;94998.28;;;12.76;35.11
46379;BME280;32084;42.254;22.744;2023-04-07T12:59:29;94999.00;;;12.93;34.47
46379;BME280;32084;42.254;22.744;2023-04-07T13:01:55;94998.44;;;12.74;34.91
46379;BME280;32084;42.254;22.744;2023-04-07T13:04:21;94999.28;;;12.75;35.83
46379;BME280;32084;42.254;22.744;2023-04-07T13:06:49;95002.66;;;12.77;36.14
46379;BME280;32084;42.254;22.744;2023-04-07T13:09:15;95003.06;;;12.88;35.37
46379;BME280;32084;42.254;22.744;2023-04-07T13:11:41;95004.84;;;12.73;35.12
46379;BME280;32084;42.254;22.744;2023-04-07T13:14:07;95010.41;;;12.63;35.17
46379;BME280;32084;42.254;22.744;2023-04-07T13:16:34;95005.50;;;12.52;35.00
46379;BME280;32084;42.254;22.744;2023-04-07T13:19:00;95005.25;;;12.62;35.28
46379;BME280;32084;42.254;22.744;2023-04-07T13:21:26;95003.16;;;12.72;35.34